Nearby METAR Reports

 

KCNI - Canton/Cherokee, Georgia, USA
Distance from station: S 22mi, 36km
Updated: Wed, Nov-22-2017 7:15am EST
Clear
Clear
 Wind from NW
Wind: NW 3 mph , 6 km/h
Temperature: 46°F , 8°C
Dew Point: 43°F , 6°C
Humidity: 87%
Barometer: 30.05 inHg , 1017.6 hPa
Clouds: Clear
Visibility: 10 miles , 16 km
2017/11/22 12:15 KCNI 221215Z AUTO 31003KT 10SM CLR 08/06 A3005 RMK AO2
KDNN - Dalton, Georgia, USA
Distance from station: WNW 24mi, 39km
Updated: Wed, Nov-22-2017 7:15am EST
Clear
Clear
 Wind from NNW
Wind: NNW 7 mph , 11 km/h
Temperature: 43°F , 6°C
Wind Chill: 39°F , 4°C
Dew Point: 36°F , 2°C
Humidity: 76%
Barometer: 30.10 inHg , 1019.3 hPa
Clouds: Clear
Visibility: 10 miles , 16 km
2017/11/22 12:15 KDNN 221215Z AUTO 33006KT 10SM CLR 06/02 A3010 RMK AO2
 
KVPC - Cartersville, Georgia, USA
Distance from station: SSW 42mi, 67km
Updated: Wed, Nov-22-2017 6:53am EST
Clear
Clear
 Wind from calm
Wind: Calm
Temperature: 43°F , 6°C
Dew Point: 43°F , 6°C
Humidity: 100%
Barometer: 30.07 inHg , 1018.3 hPa
Clouds: Clear
Visibility: 10 miles , 16 km
2017/11/22 11:53 KVPC 221153Z AUTO 00000KT 10SM CLR 06/06 A3007 RMK AO2 SLP177 T00610061 10117 20061 53010
KGVL - Gainesville, Georgia, USA
Distance from station: SE 43mi, 70km
Updated: Wed, Nov-22-2017 6:53am EST
Clear
Clear
 Wind from NW
Wind: NW 8 mph , 13 km/h
Temperature: 48°F , 9°C
Wind Chill: 44°F , 7°C
Dew Point: 46°F , 8°C
Humidity: 94%
Barometer: 30.02 inHg , 1016.6 hPa
Clouds: Clear
Visibility: 10 miles , 16 km
2017/11/22 11:53 KGVL 221153Z AUTO 31007KT 10SM CLR 09/08 A3002 RMK AO2 SLP161 T00940078 10111 20083 55000
 
KRYY - Marietta Mccolum, Georgia, USA
Distance from station: S 44mi, 70km
Updated: Wed, Nov-22-2017 6:48am EST
Clear
Clear
 Wind from NW
Wind: NW 9 mph , 15 km/h
Temperature: 46°F , 8°C
Wind Chill: 41°F , 5°C
Dew Point: 39°F , 4°C
Humidity: 76%
Barometer: 30.04 inHg , 1017.3 hPa
Clouds: Clear
Visibility: 10 miles , 16 km
2017/11/22 11:48 KRYY 221148Z 32008KT 10SM CLR 08/04 A3004 RMK AO2 SLP894 T00830039 10128 20083 51005
KRMG - Rome, Georgia, USA
Distance from station: WSW 45mi, 73km
Updated: Wed, Nov-22-2017 6:53am EST
Clear
Clear
 Wind from NNW
Wind: NNW 8 mph , 13 km/h
Temperature: 46°F , 8°C
Wind Chill: 42°F , 6°C
Dew Point: 37°F , 3°C
Humidity: 71%
Barometer: 30.07 inHg , 1018.3 hPa
Clouds: Clear
Visibility: 10 miles , 16 km
2017/11/22 11:53 KRMG 221153Z AUTO 34007KT 10SM CLR 08/03 A3007 RMK AO2 SLP179 T00780033 10089 20044 53006
 
KMGE - Dobbins Afb/Mari, Georgia, USA
Distance from station: S 50mi, 80km
Updated: Wed, Nov-22-2017 6:56am EST
Partly cloudy
Partly cloudy
 Wind from NW
Wind: NW 7 mph , 11 km/h
Temperature: 48°F , 9°C
Wind Chill: 45°F , 7°C
Dew Point: 39°F , 4°C
Humidity: 71%
Barometer: 30.02 inHg , 1016.6 hPa
Clouds: Partly cloudy
Visibility: 10 miles , 16 km
Cloud details: Partly cloudy 25000 ft
2017/11/22 11:56 KMGE 221156Z 31006KT 10SM SCT250 09/04 A3002 RMK AO2A SLP166 T00900044 10127 20090 53004 $